Time;durP1;ratioP1;P1;durP2;ratioP2;P2;SDS_P1;SDS_P2;PMS_P1;PMS_P2;Temp;Humidity;BMP_temperature;BMP_pressure;BME280_temperature;BME280_humidity;BME280_pressure;Samples;Min_cycle;Max_cycle;Signal;HPM_P1;HPM_P2
2022/06/27 00:02:03;;;;;;;5.82;4.63;;;18.00;99.90;;;;;;5089403;27;20563;-86
2022/06/27 00:04:29;;;;;;;6.97;4.63;;;18.00;99.90;;;;;;5087804;27;20039;-86
2022/06/27 00:06:58;;;;;;;8.48;5.13;;;18.00;99.90;;;;;;5087686;27;20043;-86
2022/06/27 00:09:23;;;;;;;6.70;4.78;;;18.00;99.90;;;;;;5087261;27;20052;-86
2022/06/27 00:12:02;;;;;;;;;;;;;;;;;;;;;
2022/06/27 00:14:28;;;;;;;4.95;4.22;;;18.00;99.90;;;;;;5090614;27;20043;-86
2022/06/27 00:16:57;;;;;;;8.63;5.20;;;18.00;99.90;;;;;;5087264;27;20075;-87
2022/06/27 00:19:23;;;;;;;7.35;4.80;;;18.00;99.90;;;;;;5093587;27;20047;-87
2022/06/27 00:21:55;;;;;;;5.57;4.88;;;17.90;99.90;;;;;;5080582;27;20083;-86
2022/06/27 00:24:21;;;;;;;7.03;5.13;;;17.90;99.90;;;;;;5094428;27;20043;-86
2022/06/27 00:26:56;;;;;;;6.93;4.50;;;17.70;99.90;;;;;;5100853;27;20065;-84
2022/06/27 00:29:28;;;;;;;4.95;3.92;;;17.90;99.90;;;;;;5072493;27;20051;-86
2022/06/27 00:31:54;;;;;;;6.47;4.78;;;17.90;99.90;;;;;;5093241;27;20074;-86
2022/06/27 00:34:19;;;;;;;8.05;4.43;;;17.90;99.90;;;;;;5094008;27;20064;-87
2022/06/27 00:36:45;;;;;;;6.38;5.13;;;17.90;99.90;;;;;;5091786;27;20070;-86
2022/06/27 00:39:16;;;;;;;5.90;4.78;;;18.00;99.90;;;;;;5089353;27;20078;-86
2022/06/27 00:41:42;;;;;;;5.82;4.45;;;17.90;99.90;;;;;;5101492;28;20050;-85
2022/06/27 00:44:09;;;;;;;8.52;4.80;;;17.90;99.90;;;;;;5104105;28;20069;-87
2022/06/27 00:46:37;;;;;;;5.93;4.70;;;17.90;99.90;;;;;;5091837;27;20045;-86
2022/06/27 00:49:03;;;;;;;5.55;4.50;;;17.90;99.90;;;;;;5109164;27;20026;-86
2022/06/27 00:51:32;;;;;;;5.40;4.45;;;17.90;99.90;;;;;;5111892;28;20070;-86
2022/06/27 00:54:04;;;;;;;7.32;5.05;;;17.90;99.90;;;;;;5108639;27;20050;-86
2022/06/27 00:56:34;;;;;;;6.75;4.22;;;17.90;99.90;;;;;;5111619;27;20144;-86
2022/06/27 00:59:00;;;;;;;5.47;4.50;;;17.90;99.90;;;;;;5127513;27;20062;-86
2022/06/27 01:01:29;;;;;;;6.53;4.90;;;17.90;99.90;;;;;;5114216;27;20019;-87
2022/06/27 01:04:00;;;;;;;7.03;4.93;;;17.80;99.90;;;;;;5099985;27;20051;-85
2022/06/27 01:06:28;;;;;;;5.90;4.57;;;17.80;99.90;;;;;;5104030;27;20039;-86
2022/06/27 01:08:59;;;;;;;5.78;4.47;;;17.70;99.90;;;;;;5109183;28;20047;-87
2022/06/27 01:11:25;;;;;;;6.85;5.05;;;17.70;99.90;;;;;;5115540;28;20061;-87
2022/06/27 01:13:51;;;;;;;7.38;5.03;;;17.60;99.90;;;;;;5108281;28;20087;-87
2022/06/27 01:16:18;;;;;;;7.68;5.20;;;17.70;99.90;;;;;;5090889;28;20047;-87
2022/06/27 01:18:44;;;;;;;7.50;5.72;;;17.60;99.90;;;;;;5103521;28;20271;-86
2022/06/27 01:21:21;;;;;;;6.03;5.22;;;17.10;99.90;;;;;;5087120;28;20047;-86
2022/06/27 01:23:47;;;;;;;6.60;5.68;;;17.60;99.90;;;;;;5085475;28;20503;-87
2022/06/27 01:26:14;;;;;;;6.03;4.63;;;17.60;99.90;;;;;;5071501;28;20411;-86
2022/06/27 01:28:40;;;;;;;7.05;5.82;;;17.60;99.90;;;;;;5068045;28;20043;-85
2022/06/27 01:31:05;;;;;;;7.40;5.60;;;17.60;99.90;;;;;;5086159;28;20039;-86
2022/06/27 01:33:39;;;;;;;7.55;5.75;;;17.50;99.90;;;;;;5089202;27;20051;-86
2022/06/27 01:38:56;;;;;;;6.85;5.57;;;17.50;99.90;;;;;;5115843;27;20047;-87
2022/06/27 01:41:25;;;;;;;7.45;5.43;;;17.50;99.90;;;;;;5073403;27;20051;-86
2022/06/27 01:43:51;;;;;;;7.50;5.93;;;17.40;99.90;;;;;;5090159;27;20047;-86
2022/06/27 01:46:17;;;;;;;7.70;5.57;;;17.40;99.90;;;;;;5072836;27;20049;-87
2022/06/27 01:48:42;;;;;;;7.13;6.30;;;17.40;99.90;;;;;;5091985;27;20050;-87
2022/06/27 01:51:09;;;;;;;7.00;5.57;;;17.40;99.90;;;;;;5072224;27;20057;-86
2022/06/27 01:53:38;;;;;;;6.65;5.70;;;17.40;99.90;;;;;;5108135;27;20034;-86
2022/06/27 01:56:07;;;;;;;7.63;5.78;;;17.30;99.90;;;;;;5107630;27;20047;-88
2022/06/27 01:58:34;;;;;;;8.55;5.40;;;17.30;99.90;;;;;;5090703;27;20399;-87
2022/06/27 02:01:00;;;;;;;7.68;5.45;;;17.30;99.90;;;;;;5090656;27;20156;-86
2022/06/27 02:03:26;;;;;;;6.47;5.38;;;17.30;99.90;;;;;;5113401;27;20122;-87
2022/06/27 02:05:57;;;;;;;6.55;5.90;;;16.60;99.90;;;;;;5100887;27;20122;-87
2022/06/27 02:08:27;;;;;;;6.13;5.05;;;17.30;99.90;;;;;;5094601;27;20079;-85
2022/06/27 02:10:53;;;;;;;7.45;5.38;;;17.30;99.90;;;;;;5106464;27;20107;-86
2022/06/27 02:13:19;;;;;;;8.52;6.28;;;17.30;99.90;;;;;;5099291;27;20059;-87
2022/06/27 02:16:04;;;;;;;7.10;6.40;;;17.30;99.90;;;;;;5094702;27;20126;-86
2022/06/27 02:18:36;;;;;;;9.45;5.95;;;17.20;99.90;;;;;;5106442;27;20122;-86
2022/06/27 02:21:11;;;;;;;7.35;6.28;;;17.20;99.90;;;;;;5075644;27;20054;-86
2022/06/27 02:23:37;;;;;;;6.75;6.05;;;17.20;99.90;;;;;;5090390;27;20050;-87
2022/06/27 02:26:09;;;;;;;6.93;6.20;;;17.20;99.90;;;;;;5088417;27;20047;-88
2022/06/27 02:28:36;;;;;;;7.05;6.25;;;17.10;99.90;;;;;;5099965;27;20051;-88
2022/06/27 02:31:05;;;;;;;7.30;6.60;;;17.10;99.90;;;;;;5108781;27;20562;-87
2022/06/27 02:33:40;;;;;;;8.30;6.15;;;17.10;99.90;;;;;;5093039;27;20067;-87
2022/06/27 02:36:07;;;;;;;9.13;6.57;;;17.10;99.90;;;;;;5108738;27;20093;-86
2022/06/27 02:38:35;;;;;;;9.07;6.68;;;17.10;99.90;;;;;;5090324;27;20046;-87
2022/06/27 02:41:04;;;;;;;8.77;6.57;;;16.90;99.90;;;;;;5090955;27;20054;-88
2022/06/27 02:43:36;;;;;;;10.20;6.75;;;17.10;99.90;;;;;;5094581;28;20177;-87
2022/06/27 02:46:11;;;;;;;8.68;7.28;;;17.00;99.90;;;;;;5096149;27;20044;-87
2022/06/27 02:48:40;;;;;;;7.88;6.88;;;17.00;99.90;;;;;;5081324;27;20051;-87
2022/06/27 02:51:19;;;;;;;8.18;6.72;;;17.00;99.90;;;;;;5091487;27;20370;-87
2022/06/27 02:54:00;;;;;;;;;;;17.00;99.90;;;;;;5108948;27;20116;-87
2022/06/27 02:56:27;;;;;;;7.65;6.53;;;17.00;99.90;;;;;;5088516;27;19919;-87
2022/06/27 02:59:06;;;;;;;9.60;6.50;;;17.00;99.90;;;;;;5102042;28;20101;-88
2022/06/27 03:01:34;;;;;;;10.25;7.10;;;17.00;99.90;;;;;;5093280;27;20104;-87
2022/06/27 03:04:03;;;;;;;8.00;7.00;;;17.00;99.90;;;;;;5094398;27;20043;-87
2022/06/27 03:06:32;;;;;;;8.95;6.80;;;17.00;99.90;;;;;;5099899;27;20107;-87
2022/06/27 03:09:07;;;;;;;8.23;7.20;;;17.00;99.90;;;;;;5087560;27;20053;-86
2022/06/27 03:11:33;;;;;;;8.52;6.93;;;16.90;99.90;;;;;;5092506;27;20046;-86
2022/06/27 03:14:02;;;;;;;8.65;7.05;;;16.90;99.90;;;;;;5093198;27;20071;-86
2022/06/27 03:16:31;;;;;;;7.05;6.35;;;17.00;99.90;;;;;;5092203;27;20070;-87
2022/06/27 03:18:57;;;;;;;7.93;7.20;;;17.00;99.90;;;;;;5097422;27;20047;-87
2022/06/27 03:21:23;;;;;;;9.65;7.70;;;17.00;99.90;;;;;;5086573;27;20443;-87
2022/06/27 03:23:51;;;;;;;8.10;6.53;;;17.00;99.90;;;;;;5090551;27;20054;-87
2022/06/27 03:26:20;;;;;;;6.78;6.05;;;16.90;99.90;;;;;;5096418;27;20130;-87
2022/06/27 03:28:46;;;;;;;10.25;7.30;;;16.90;99.90;;;;;;5095503;27;20039;-87
2022/06/27 03:31:13;;;;;;;8.13;6.53;;;16.90;99.90;;;;;;5094582;27;20361;-87
2022/06/27 03:33:49;;;;;;;8.43;7.20;;;16.00;99.90;;;;;;5087964;27;20501;-87
2022/06/27 03:36:24;;;;;;;7.65;6.75;;;16.90;99.90;;;;;;5088274;27;20047;-87
2022/06/27 03:38:50;;;;;;;8.10;7.25;;;16.90;99.90;;;;;;5088974;27;20051;-87
2022/06/27 03:41:17;;;;;;;7.70;6.90;;;16.90;99.90;;;;;;5103431;27;20542;-87
2022/06/27 03:43:43;;;;;;;9.00;6.75;;;16.90;99.90;;;;;;5089402;27;20047;-87
2022/06/27 03:46:12;;;;;;;9.30;6.93;;;16.90;99.90;;;;;;5092876;27;20054;-86
2022/06/27 03:51:29;;;;;;;8.88;6.82;;;16.90;99.90;;;;;;5104719;27;20131;-87
2022/06/27 03:53:58;;;;;;;8.27;7.47;;;16.90;99.90;;;;;;5085609;28;20142;-86
2022/06/27 03:56:24;;;;;;;7.60;6.60;;;16.80;99.90;;;;;;5085353;27;20136;-87
2022/06/27 03:58:51;;;;;;;9.23;6.70;;;16.90;99.90;;;;;;5094648;27;20093;-87
2022/06/27 04:01:19;;;;;;;9.02;6.85;;;16.80;99.90;;;;;;5102026;27;20575;-86
2022/06/27 04:03:47;;;;;;;7.63;6.47;;;16.90;99.90;;;;;;5087881;27;20503;-87
2022/06/27 04:06:13;;;;;;;8.82;7.35;;;16.90;99.90;;;;;;5090650;27;20492;-87
2022/06/27 04:08:53;;;;;;;8.93;7.30;;;16.90;99.90;;;;;;5106631;27;20093;-87
2022/06/27 04:11:22;;;;;;;7.78;6.47;;;16.90;99.90;;;;;;5087330;27;20043;-87
2022/06/27 04:13:58;;;;;;;7.15;6.28;;;16.90;99.90;;;;;;5094887;27;20043;-87
2022/06/27 04:16:26;;;;;;;9.27;6.35;;;16.90;99.90;;;;;;5093787;27;20486;-87
2022/06/27 04:18:54;;;;;;;8.18;7.05;;;16.90;99.90;;;;;;5106541;27;20077;-87
2022/06/27 04:21:20;;;;;;;8.07;7.25;;;16.80;99.90;;;;;;5088664;27;20048;-87
2022/06/27 04:23:53;;;;;;;8.35;7.60;;;17.00;99.90;;;;;;5087125;27;20040;-86
2022/06/27 04:26:19;;;;;;;8.95;7.97;;;17.00;99.90;;;;;;5103342;27;20357;-87
2022/06/27 04:28:47;;;;;;;7.82;6.75;;;17.00;99.90;;;;;;5088608;27;20064;-87
2022/06/27 04:31:13;;;;;;;7.70;6.80;;;17.00;99.90;;;;;;5089008;27;20047;-87
2022/06/27 04:33:39;;;;;;;7.85;7.13;;;17.00;99.90;;;;;;5093509;27;20541;-87
2022/06/27 04:36:10;;;;;;;7.50;6.80;;;17.10;99.90;;;;;;5095280;27;20062;-87
2022/06/27 04:38:38;;;;;;;7.63;6.88;;;16.80;99.90;;;;;;5089070;27;20058;-86
2022/06/27 04:41:05;;;;;;;7.90;6.90;;;17.10;99.90;;;;;;5073017;27;20132;-87
2022/06/27 04:43:34;;;;;;;12.43;6.90;;;17.10;99.90;;;;;;5088973;27;20051;-86
2022/06/27 04:46:02;;;;;;;7.43;6.50;;;16.50;99.90;;;;;;5107216;27;20580;-87
2022/06/27 04:48:29;;;;;;;9.27;6.70;;;17.10;99.90;;;;;;5094577;28;20048;-87
2022/06/27 04:50:57;;;;;;;8.52;7.00;;;17.20;99.90;;;;;;5095651;28;20090;-87
2022/06/27 04:53:25;;;;;;;9.32;7.10;;;16.80;99.90;;;;;;5093935;27;20099;-86
2022/06/27 04:58:39;;;;;;;6.72;6.13;;;17.50;99.90;;;;;;5104361;28;20062;-87
2022/06/27 05:01:07;;;;;;;9.05;6.80;;;17.30;99.90;;;;;;5072236;27;20073;-87
2022/06/27 05:03:36;;;;;;;7.55;6.80;;;17.40;99.90;;;;;;5104979;27;20043;-87
2022/06/27 05:06:02;;;;;;;7.80;6.93;;;16.90;99.90;;;;;;5089827;27;20054;-87
2022/06/27 05:08:52;;;;;;;10.30;7.28;;;17.50;99.90;;;;;;5086191;27;20055;-88
2022/06/27 05:11:21;;;;;;;7.60;6.32;;;17.50;99.90;;;;;;5085608;28;20054;-88
2022/06/27 05:13:47;;;;;;;8.10;6.57;;;17.50;99.90;;;;;;5090776;28;20043;-87
2022/06/27 05:16:15;;;;;;;7.45;6.75;;;17.50;99.90;;;;;;5107378;28;20046;-87
2022/06/27 05:18:46;;;;;;;9.23;6.57;;;17.60;99.90;;;;;;5093708;28;20051;-87
2022/06/27 05:21:12;;;;;;;8.35;6.47;;;17.70;99.90;;;;;;5089206;28;20109;-87
2022/06/27 05:23:38;;;;;;;8.15;6.60;;;17.70;99.90;;;;;;5117850;28;20047;-88
2022/06/27 05:26:05;;;;;;;8.85;6.47;;;17.20;99.90;;;;;;5094273;28;20072;-87
2022/06/27 05:28:34;;;;;;;7.53;6.47;;;17.80;99.90;;;;;;5089874;28;20500;-87
2022/06/27 05:31:00;;;;;;;8.23;5.80;;;17.80;99.90;;;;;;5086006;28;20050;-86
2022/06/27 05:33:28;;;;;;;6.93;5.80;;;17.90;99.90;;;;;;5092584;28;20043;-87
2022/06/27 05:35:54;;;;;;;6.47;5.50;;;17.90;99.90;;;;;;5098561;28;20054;-87
2022/06/27 05:38:36;;;;;;;;;;;;;;;;;;;;;
2022/06/27 05:41:02;;;;;;;6.45;5.10;;;18.20;99.90;;;;;;5100750;28;20134;-86
2022/06/27 05:43:31;;;;;;;6.60;5.47;;;17.90;99.90;;;;;;5091185;28;20134;-86
2022/06/27 05:45:57;;;;;;;9.02;5.65;;;18.00;99.90;;;;;;5085404;28;20051;-87
2022/06/27 05:48:25;;;;;;;7.03;5.30;;;18.10;99.90;;;;;;5084499;28;20053;-87
2022/06/27 05:50:57;;;;;;;6.03;4.30;;;18.10;99.90;;;;;;5092398;28;20116;-86
2022/06/27 05:53:24;;;;;;;6.13;5.47;;;18.10;99.90;;;;;;5068734;28;20071;-86
2022/06/27 05:55:50;;;;;;;5.72;5.13;;;18.10;99.90;;;;;;5085588;28;20051;-86
2022/06/27 05:58:19;;;;;;;8.70;5.55;;;18.10;99.90;;;;;;5091568;28;20047;-86
2022/06/27 06:00:45;;;;;;;6.13;5.53;;;18.10;99.90;;;;;;5075511;28;20032;-87
2022/06/27 06:03:17;;;;;;;6.78;6.07;;;18.10;99.90;;;;;;5088093;28;20453;-87
2022/06/27 06:05:44;;;;;;;7.15;5.97;;;18.10;99.90;;;;;;5075163;28;20040;-87
2022/06/27 06:08:11;;;;;;;8.15;6.07;;;18.10;99.90;;;;;;5093004;28;20086;-87
2022/06/27 06:10:38;;;;;;;6.43;5.72;;;18.10;99.90;;;;;;5083475;28;20052;-87
2022/06/27 06:13:04;;;;;;;7.00;5.68;;;18.20;99.90;;;;;;5091129;28;20047;-87
2022/06/27 06:15:31;;;;;;;7.18;5.88;;;18.30;99.90;;;;;;5088048;28;20438;-87
2022/06/27 06:18:03;;;;;;;5.65;5.05;;;18.50;99.90;;;;;;5085761;27;20040;-87
2022/06/27 06:20:31;;;;;;;5.97;5.38;;;18.40;99.90;;;;;;5106924;27;20044;-87
2022/06/27 06:23:00;;;;;;;6.35;4.55;;;18.40;99.90;;;;;;5086387;27;20055;-88
2022/06/27 06:25:30;;;;;;;5.82;4.47;;;18.40;99.90;;;;;;5097123;27;20055;-87
2022/06/27 06:28:05;;;;;;;7.18;3.92;;;18.50;99.90;;;;;;5109062;27;20069;-87
2022/06/27 06:30:38;;;;;;;6.50;4.00;;;18.10;99.90;;;;;;5094601;27;20050;-88
2022/06/27 06:33:07;;;;;;;4.45;3.55;;;18.60;99.90;;;;;;5090589;27;20100;-88
2022/06/27 06:35:36;;;;;;;6.90;4.35;;;18.70;99.90;;;;;;5114734;27;20050;-87
2022/06/27 06:38:04;;;;;;;5.68;4.38;;;18.80;99.90;;;;;;5093139;27;20578;-87
2022/06/27 06:40:33;;;;;;;5.25;4.10;;;18.90;99.90;;;;;;5090252;27;20073;-88
2022/06/27 06:43:04;;;;;;;8.02;4.85;;;19.00;99.90;;;;;;5097578;27;20134;-87
2022/06/27 06:45:31;;;;;;;6.18;3.70;;;19.10;99.90;;;;;;5088885;27;20051;-87
2022/06/27 06:48:02;;;;;;;4.72;3.83;;;19.00;99.90;;;;;;5115124;27;20108;-88
2022/06/27 06:50:28;;;;;;;6.60;3.90;;;18.70;99.90;;;;;;5097852;27;20598;-88
2022/06/27 06:52:56;;;;;;;5.30;3.53;;;19.30;99.90;;;;;;5098704;27;20051;-87
2022/06/27 06:55:24;;;;;;;7.78;4.50;;;19.20;99.90;;;;;;5092899;27;20047;-88
2022/06/27 06:57:54;;;;;;;5.60;4.53;;;19.30;99.90;;;;;;5089423;27;20056;-87
2022/06/27 07:00:20;;;;;;;8.27;5.88;;;19.30;99.90;;;;;;5092244;27;20054;-88
2022/06/27 07:02:48;;;;;;;7.07;5.40;;;19.30;99.90;;;;;;5098184;27;20089;-88
2022/06/27 07:05:16;;;;;;;7.25;5.35;;;19.30;99.90;;;;;;5090593;27;20134;-86
2022/06/27 07:07:43;;;;;;;5.68;5.10;;;19.10;99.90;;;;;;5092860;27;20044;-88
2022/06/27 07:10:13;;;;;;;5.90;5.30;;;19.20;99.90;;;;;;5095796;27;20082;-87
2022/06/27 07:12:43;;;;;;;8.60;5.03;;;19.20;99.90;;;;;;5097338;27;20047;-87
2022/06/27 07:15:12;;;;;;;5.93;4.70;;;19.50;99.90;;;;;;5093257;27;20061;-87
2022/06/27 07:17:49;;;;;;;6.40;4.45;;;19.20;99.90;;;;;;5092235;27;20100;-88
2022/06/27 07:20:20;;;;;;;5.63;4.68;;;19.20;99.90;;;;;;5089298;27;20051;-88
2022/06/27 07:22:53;;;;;;;6.30;4.50;;;19.10;99.90;;;;;;5102245;27;20047;-88
2022/06/27 07:25:19;;;;;;;7.00;3.88;;;19.20;99.90;;;;;;5088430;27;20443;-88
2022/06/27 07:27:49;;;;;;;6.82;4.15;;;19.10;99.90;;;;;;5095056;27;20075;-87
2022/06/27 07:30:15;;;;;;;5.22;3.75;;;19.10;99.90;;;;;;5103997;27;20052;-87
2022/06/27 07:32:43;;;;;;;4.25;3.40;;;19.20;99.90;;;;;;5086977;27;20130;-87
2022/06/27 07:35:16;;;;;;;4.55;3.70;;;19.10;99.90;;;;;;5094522;27;20046;-87
2022/06/27 07:37:45;;;;;;;5.80;3.92;;;19.20;99.90;;;;;;5104548;27;20081;-87
2022/06/27 07:40:12;;;;;;;4.63;4.13;;;19.20;99.90;;;;;;5089353;27;20051;-87
2022/06/27 07:42:41;;;;;;;6.47;4.68;;;19.20;99.90;;;;;;5096794;27;20039;-88
2022/06/27 07:45:11;;;;;;;6.03;4.85;;;18.70;99.90;;;;;;5094619;27;20128;-87
2022/06/27 07:47:40;;;;;;;5.60;5.00;;;19.20;99.90;;;;;;5103917;27;20053;-87
2022/06/27 07:50:36;;;;;;;5.55;4.60;;;19.20;99.90;;;;;;5105198;27;20071;-87
2022/06/27 07:53:17;;;;;;;6.65;5.22;;;19.20;99.90;;;;;;5108109;27;20772;-87
2022/06/27 07:55:52;;;;;;;6.07;4.28;;;19.30;99.90;;;;;;5086397;27;20061;-87
2022/06/27 07:58:28;;;;;;;5.30;4.28;;;19.40;99.90;;;;;;5087589;27;20096;-87
2022/06/27 08:00:54;;;;;;;8.05;5.03;;;19.30;99.90;;;;;;5089131;27;20043;-87
2022/06/27 08:06:10;;;;;;;5.20;4.65;;;19.50;99.90;;;;;;5103474;27;20046;-87
2022/06/27 08:08:41;;;;;;;6.25;3.92;;;20.30;99.90;;;;;;5103279;27;20047;-88
2022/06/27 08:11:11;;;;;;;6.57;4.75;;;19.60;99.90;;;;;;5094708;27;20066;-87
2022/06/27 08:13:38;;;;;;;5.38;4.20;;;19.70;99.90;;;;;;5085550;27;20054;-88
2022/06/27 08:16:05;;;;;;;8.10;5.10;;;19.70;99.90;;;;;;5084953;27;20040;-88
2022/06/27 08:18:32;;;;;;;6.07;4.57;;;19.70;99.90;;;;;;5102729;27;20065;-87
2022/06/27 08:20:59;;;;;;;6.35;4.80;;;19.80;99.90;;;;;;5095496;27;20110;-87
2022/06/27 08:23:33;;;;;;;5.80;4.75;;;19.80;99.90;;;;;;5107445;27;20046;-88
2022/06/27 08:25:59;;;;;;;5.45;4.13;;;19.80;99.90;;;;;;5085794;27;20059;-87
2022/06/27 08:28:28;;;;;;;6.32;4.80;;;19.80;99.90;;;;;;5094208;27;20047;-87
2022/06/27 08:30:54;;;;;;;5.65;4.72;;;19.80;99.90;;;;;;5089519;27;20122;-87
2022/06/27 08:33:21;;;;;;;5.65;4.90;;;20.10;99.90;;;;;;5088437;28;20036;-87
2022/06/27 08:35:47;;;;;;;7.07;4.78;;;20.00;99.90;;;;;;5103774;28;20500;-86
2022/06/27 08:38:19;;;;;;;7.25;4.72;;;20.00;99.90;;;;;;5093245;27;20064;-87
2022/06/27 08:40:47;;;;;;;6.68;4.60;;;19.60;99.90;;;;;;5093127;27;20051;-86
2022/06/27 08:43:16;;;;;;;5.63;4.25;;;20.10;99.90;;;;;;5091188;27;20051;-87
2022/06/27 08:45:47;;;;;;;5.80;4.30;;;20.20;99.90;;;;;;5104786;27;20044;-88
2022/06/27 08:48:15;;;;;;;6.70;4.30;;;20.30;99.90;;;;;;5086889;28;20039;-87
2022/06/27 08:50:45;;;;;;;5.68;4.35;;;20.40;99.90;;;;;;5078941;27;20043;-87
2022/06/27 08:53:15;;;;;;;4.57;3.83;;;20.50;99.90;;;;;;5103205;27;20039;-88
2022/06/27 08:55:46;;;;;;;5.85;4.57;;;20.60;99.90;;;;;;5101763;28;20047;-87
2022/06/27 08:58:17;;;;;;;6.10;4.28;;;20.60;99.90;;;;;;5104140;27;20048;-87
2022/06/27 09:00:48;;;;;;;4.57;3.22;;;20.70;99.90;;;;;;5103077;27;20048;-88
2022/06/27 09:03:19;;;;;;;6.43;3.53;;;20.60;99.90;;;;;;5089593;27;20066;-88
2022/06/27 09:06:05;;;;;;;5.25;3.88;;;20.90;99.90;;;;;;5100173;28;20047;-87
2022/06/27 09:08:55;;;;;;;5.78;4.00;;;21.00;99.90;;;;;;5095171;28;20044;-88
2022/06/27 09:11:51;;;;;;;4.53;3.63;;;21.10;99.90;;;;;;5084172;27;20063;-88
2022/06/27 09:14:41;;;;;;;5.57;3.70;;;21.20;99.90;;;;;;5093037;28;20043;-88
2022/06/27 09:17:12;;;;;;;4.80;3.20;;;21.20;99.90;;;;;;5094289;28;20079;-88
2022/06/27 09:19:56;;;;;;;4.05;3.20;;;21.10;99.90;;;;;;5094017;28;20063;-88
2022/06/27 09:22:28;;;;;;;5.28;3.50;;;21.20;99.90;;;;;;5087758;28;20051;-87
2022/06/27 09:25:19;;;;;;;4.97;3.53;;;21.30;99.90;;;;;;5093502;28;20086;-88
2022/06/27 09:27:51;;;;;;;7.32;3.80;;;21.30;99.90;;;;;;5087711;28;20046;-88
2022/06/27 09:30:20;;;;;;;5.80;3.77;;;21.30;99.90;;;;;;5094319;28;20480;-88
2022/06/27 09:32:58;;;;;;;4.82;3.50;;;21.30;99.90;;;;;;5084356;28;20051;-88
2022/06/27 09:35:46;;;;;;;4.85;3.55;;;21.30;99.90;;;;;;5111409;28;20495;-88
2022/06/27 09:38:45;;;;;;;4.43;3.47;;;21.30;99.90;;;;;;5088093;28;20378;-87
2022/06/27 09:41:29;;;;;;;6.93;3.67;;;21.30;99.90;;;;;;5087394;28;20047;-87
2022/06/27 09:44:10;;;;;;;5.05;3.20;;;21.40;99.90;;;;;;5091506;28;20056;-88
2022/06/27 09:46:47;;;;;;;5.07;3.22;;;21.30;99.90;;;;;;5105268;28;20076;-87
2022/06/27 09:49:26;;;;;;;6.03;3.22;;;21.40;99.90;;;;;;5108282;28;20082;-87
2022/06/27 09:51:59;;;;;;;7.68;4.05;;;21.00;99.90;;;;;;5088702;28;20120;-88
2022/06/27 09:54:37;;;;;;;6.18;3.85;;;21.30;99.90;;;;;;5109141;27;20050;-88
2022/06/27 09:57:13;;;;;;;5.47;3.30;;;21.30;99.90;;;;;;5093330;28;20056;-89
2022/06/27 09:59:43;;;;;;;4.85;3.90;;;21.40;99.90;;;;;;5103932;28;20134;-87
2022/06/27 10:02:08;;;;;;;6.70;3.60;;;21.40;99.90;;;;;;5086001;28;20506;-86
2022/06/27 10:04:37;;;;;;;4.45;3.47;;;21.40;99.90;;;;;;5104179;28;20047;-87
2022/06/27 10:07:07;;;;;;;5.25;3.78;;;21.40;99.90;;;;;;5104763;28;20445;-86
2022/06/27 10:09:36;;;;;;;5.93;4.25;;;21.20;99.90;;;;;;5091711;28;20055;-86
2022/06/27 10:12:24;;;;;;;5.55;3.85;;;21.40;99.90;;;;;;5100434;28;20051;-86
2022/06/27 10:15:09;;;;;;;6.13;4.10;;;21.20;99.90;;;;;;5089351;28;20480;-88
2022/06/27 10:17:41;;;;;;;5.97;4.05;;;21.50;99.90;;;;;;5084492;28;20036;-86
2022/06/27 10:20:21;;;;;;;4.97;4.10;;;21.50;99.90;;;;;;5105422;28;20039;-85
2022/06/27 10:23:09;;;;;;;7.28;4.15;;;21.50;99.90;;;;;;5108141;28;20184;-86
2022/06/27 10:25:43;;;;;;;4.88;3.88;;;21.50;99.90;;;;;;5083524;28;20040;-86
2022/06/27 10:28:14;;;;;;;5.40;3.97;;;21.80;99.90;;;;;;5085570;28;20113;-86
2022/06/27 10:30:44;;;;;;;5.75;3.60;;;21.00;99.90;;;;;;5101475;28;20550;-87
2022/06/27 10:33:25;;;;;;;5.57;3.95;;;21.40;99.90;;;;;;5083592;28;20047;-86
2022/06/27 10:36:18;;;;;;;7.40;4.00;;;21.60;99.90;;;;;;5084700;28;20113;-86
2022/06/27 10:38:50;;;;;;;4.97;3.70;;;21.60;99.90;;;;;;5099408;28;20055;-86
2022/06/27 10:41:19;;;;;;;4.20;3.30;;;21.70;99.90;;;;;;5094168;28;20040;-85
2022/06/27 10:43:56;;;;;;;6.97;3.80;;;21.70;99.90;;;;;;5101743;28;20039;-86
2022/06/27 10:46:22;;;;;;;5.28;3.22;;;21.70;99.90;;;;;;5087529;28;20061;-87
2022/06/27 10:48:56;;;;;;;6.47;4.07;;;21.70;99.90;;;;;;5086069;28;20047;-86
2022/06/27 10:51:38;;;;;;;5.05;3.65;;;21.80;99.90;;;;;;5091854;28;20063;-87
2022/06/27 10:54:04;;;;;;;4.82;3.47;;;21.80;99.90;;;;;;5092512;28;20056;-87
2022/06/27 10:56:44;;;;;;;5.63;3.70;;;22.00;99.90;;;;;;5091488;28;20130;-88
2022/06/27 10:59:13;;;;;;;5.28;3.70;;;22.00;99.90;;;;;;5102278;28;20112;-88
2022/06/27 11:02:09;;;;;;;6.07;3.70;;;22.10;99.90;;;;;;5087779;28;20058;-88
2022/06/27 11:04:44;;;;;;;6.25;3.70;;;22.00;99.90;;;;;;5086072;28;20051;-86
2022/06/27 11:07:10;;;;;;;;;;;22.20;99.90;;;;;;5102226;28;20075;-88
2022/06/27 11:09:53;;;;;;;6.07;4.00;;;22.20;99.90;;;;;;5094576;28;20365;-88
2022/06/27 11:12:26;;;;;;;5.28;3.72;;;22.30;99.90;;;;;;5112069;28;20052;-87
2022/06/27 11:15:01;;;;;;;6.93;4.22;;;22.40;99.90;;;;;;5086806;28;20052;-89
2022/06/27 11:17:44;;;;;;;4.07;3.67;;;22.30;99.90;;;;;;5091841;28;20075;-88
2022/06/27 11:20:34;;;;;;;6.80;3.85;;;22.30;99.90;;;;;;5092068;28;20127;-86
2022/06/27 11:23:03;;;;;;;5.72;3.70;;;22.30;99.90;;;;;;5092512;28;20040;-88
2022/06/27 11:25:30;;;;;;;4.95;3.38;;;22.20;99.90;;;;;;5071821;28;20047;-88
2022/06/27 11:33:40;;;;;;;5.22;2.72;;;22.30;99.90;;;;;;5106386;28;20092;-87
2022/06/27 11:36:06;;;;;;;5.13;3.35;;;22.40;99.90;;;;;;5091405;28;20040;-88
2022/06/27 11:38:59;;;;;;;4.75;3.35;;;22.40;99.90;;;;;;5081240;28;20087;-89
2022/06/27 11:41:33;;;;;;;5.82;3.95;;;22.50;99.90;;;;;;5101442;28;20040;-87
2022/06/27 11:44:07;;;;;;;6.30;3.70;;;22.60;99.90;;;;;;5072352;28;20051;-87
2022/06/27 11:47:00;;;;;;;8.45;4.15;;;22.20;99.90;;;;;;5096917;28;20047;-85
2022/06/27 11:49:34;;;;;;;6.40;4.15;;;22.80;99.90;;;;;;5093428;28;20040;-86
2022/06/27 11:52:05;;;;;;;6.30;3.72;;;22.80;99.90;;;;;;5093246;28;20040;-86
2022/06/27 11:54:41;;;;;;;5.22;4.05;;;22.90;99.90;;;;;;5103098;28;20127;-85
2022/06/27 11:57:26;;;;;;;5.15;3.47;;;22.70;99.90;;;;;;5084973;28;20515;-87
2022/06/27 11:59:58;;;;;;;5.30;3.92;;;22.70;99.90;;;;;;5102325;28;20052;-86
2022/06/27 12:02:35;;;;;;;7.07;4.57;;;22.60;99.90;;;;;;5110404;28;20132;-87
2022/06/27 12:05:13;;;;;;;6.18;4.22;;;22.60;99.90;;;;;;5106986;28;20052;-89
2022/06/27 12:07:51;;;;;;;7.25;4.13;;;22.50;99.90;;;;;;5084850;28;20043;-87
2022/06/27 12:11:16;;;;;;;6.45;3.40;;;22.40;99.90;;;;;;5103404;28;20366;-87
2022/06/27 12:13:32;;;;;;;7.10;4.10;;;22.40;99.90;;;;;;5101470;28;20135;-87
2022/06/27 12:16:00;;;;;;;5.25;4.10;;;22.30;99.90;;;;;;5090322;28;20446;-87
2022/06/27 12:25:46;;;;;;;5.85;3.60;;;21.90;99.90;;;;;;5031276;28;20079;-86
2022/06/27 12:28:12;;;;;;;6.20;3.85;;;22.30;99.90;;;;;;5084366;28;20136;-84
2022/06/27 12:30:40;;;;;;;4.95;3.95;;;22.40;99.90;;;;;;5085619;28;20469;-86
2022/06/27 12:33:13;;;;;;;8.50;4.13;;;22.50;99.90;;;;;;5070456;28;20097;-86
2022/06/27 12:35:39;;;;;;;5.47;3.80;;;22.60;99.90;;;;;;5072681;28;20097;-87
2022/06/27 12:38:08;;;;;;;6.22;3.70;;;22.60;99.90;;;;;;5085420;28;20044;-86
2022/06/27 12:41:15;;;;;;;5.38;3.88;;;22.70;99.90;;;;;;5096353;28;20055;-86
2022/06/27 12:43:47;;;;;;;5.93;3.88;;;22.70;99.90;;;;;;5119448;28;20054;-86
2022/06/27 12:46:18;;;;;;;6.13;4.05;;;23.00;99.90;;;;;;5103413;28;20077;-86
2022/06/27 12:48:45;;;;;;;10.18;3.85;;;23.30;99.90;;;;;;5094362;28;20090;-85
2022/06/27 12:51:11;;;;;;;6.88;3.60;;;23.40;99.90;;;;;;5106269;28;20337;-86
2022/06/27 12:53:39;;;;;;;6.68;3.58;;;23.30;99.90;;;;;;5120089;28;20062;-85
2022/06/27 12:56:06;;;;;;;6.60;4.00;;;23.20;99.90;;;;;;5089419;28;20055;-85
2022/06/27 12:58:35;;;;;;;5.03;3.70;;;22.80;99.90;;;;;;5097647;28;20150;-87
2022/06/27 13:01:02;;;;;;;6.10;3.97;;;22.80;99.90;;;;;;5103809;28;20126;-85
2022/06/27 13:03:31;;;;;;;6.10;3.88;;;22.40;99.90;;;;;;5118716;28;20553;-86
2022/06/27 13:06:07;;;;;;;5.50;3.40;;;22.70;99.90;;;;;;5100465;28;20491;-86
2022/06/27 13:08:38;;;;;;;5.95;3.50;;;22.70;99.90;;;;;;5102432;28;20039;-86
2022/06/27 13:11:04;;;;;;;6.25;3.58;;;22.90;99.90;;;;;;5110137;28;20409;-86
2022/06/27 13:13:33;;;;;;;7.57;3.58;;;22.60;99.90;;;;;;5101556;28;20047;-86
2022/06/27 13:16:04;;;;;;;7.00;3.40;;;22.50;99.90;;;;;;5121313;28;20095;-86
2022/06/27 13:18:33;;;;;;;8.60;3.85;;;22.30;99.90;;;;;;5097007;28;20084;-86
2022/06/27 13:21:06;;;;;;;5.53;3.33;;;22.20;99.90;;;;;;5113749;28;20112;-86
2022/06/27 13:23:32;;;;;;;6.70;3.80;;;22.20;99.90;;;;;;5101840;28;20051;-88
2022/06/27 13:26:04;;;;;;;5.72;4.60;;;22.20;99.90;;;;;;5124576;28;20051;-85
2022/06/27 13:28:34;;;;;;;9.77;4.15;;;22.20;99.90;;;;;;5106050;28;20098;-86
2022/06/27 13:31:18;;;;;;;6.70;4.40;;;22.20;99.90;;;;;;5080218;28;20052;-86
2022/06/27 13:33:44;;;;;;;6.93;4.75;;;22.20;99.90;;;;;;5102592;28;20048;-86
2022/06/27 13:36:10;;;;;;;7.95;4.75;;;22.20;99.90;;;;;;5084111;28;20074;-87